Time;durP1;ratioP1;P1;durP2;ratioP2;P2;SDS_P1;SDS_P2;PMS_P1;PMS_P2;Temp;Humidity;BMP_temperature;BMP_pressure;BME280_temperature;BME280_humidity;BME280_pressure;Samples;Min_cycle;Max_cycle;Signal;HPM_P1;HPM_P2
2022/11/30 00:03:38;;;;;;;56.33;31.93;;;1.40;1.00;;;;;;10506059;28;20191;-83
2022/11/30 00:08:59;;;;;;;52.90;28.70;;;1.40;1.00;;;;;;10505407;28;20223;-82
2022/11/30 00:14:20;;;;;;;52.43;30.07;;;1.40;1.00;;;;;;10491769;28;20199;-81
2022/11/30 00:19:42;;;;;;;52.20;29.67;;;1.40;1.00;;;;;;10479340;28;20229;-82
2022/11/30 00:25:04;;;;;;;54.43;31.17;;;1.40;1.00;;;;;;10461017;28;20208;-81
2022/11/30 00:30:25;;;;;;;56.70;31.60;;;1.50;1.00;;;;;;10486729;28;20486;-82
2022/11/30 00:35:58;;;;;;;54.20;30.37;;;1.40;1.00;;;;;;10464698;28;20206;-81
2022/11/30 00:41:21;;;;;;;58.17;31.70;;;1.40;1.00;;;;;;10463721;28;20208;-80
2022/11/30 00:46:42;;;;;;;48.60;29.87;;;1.40;1.00;;;;;;10538982;28;20513;-80
2022/11/30 00:52:04;;;;;;;61.07;33.27;;;1.50;1.00;;;;;;10504896;28;20188;-80
2022/11/30 00:57:25;;;;;;;51.63;31.33;;;1.40;1.00;;;;;;10520425;28;20196;-81
2022/11/30 01:02:46;;;;;;;58.43;33.33;;;1.40;1.00;;;;;;10513095;28;20223;-79
2022/11/30 01:08:09;;;;;;;52.87;30.57;;;1.40;1.00;;;;;;10527905;28;20234;-81
2022/11/30 01:13:30;;;;;;;54.27;30.90;;;1.50;1.00;;;;;;10498691;28;20246;-82
2022/11/30 01:18:52;;;;;;;56.37;29.73;;;1.50;1.00;;;;;;10488217;28;20288;-80
2022/11/30 01:24:13;;;;;;;50.63;29.83;;;1.40;1.00;;;;;;10502934;28;20199;-81
2022/11/30 01:29:34;;;;;;;54.87;31.10;;;1.50;1.00;;;;;;10503753;28;20534;-81
2022/11/30 01:34:55;;;;;;;53.30;30.30;;;1.40;1.00;;;;;;10500259;28;20282;-82
2022/11/30 01:40:16;;;;;;;50.60;30.20;;;1.40;1.00;;;;;;10525782;28;20244;-82
2022/11/30 01:45:37;;;;;;;49.50;29.67;;;1.40;1.00;;;;;;10547298;28;20194;-81
2022/11/30 01:50:59;;;;;;;55.20;32.20;;;1.40;1.00;;;;;;10509345;28;20187;-82
2022/11/30 01:56:20;;;;;;;57.30;32.17;;;1.50;1.00;;;;;;10484215;28;20194;-80
2022/11/30 02:01:41;;;;;;;51.17;30.80;;;1.50;1.00;;;;;;10483537;28;20198;-80
2022/11/30 02:07:06;;;;;;;53.23;31.70;;;1.50;1.00;;;;;;10468877;28;20222;-80
2022/11/30 02:12:53;;;;;;;54.77;30.03;;;1.40;1.00;;;;;;10483471;28;20547;-82
2022/11/30 02:18:22;;;;;;;53.73;31.37;;;1.30;1.00;;;;;;10483009;28;20240;-83
2022/11/30 02:24:02;;;;;;;49.53;29.63;;;1.40;1.00;;;;;;10509805;28;20191;-83
2022/11/30 02:30:00;;;;;;;56.00;31.40;;;1.40;1.00;;;;;;10502320;28;20234;-82
2022/11/30 02:35:27;;;;;;;53.60;29.73;;;1.50;1.00;;;;;;10394068;28;20255;-82
2022/11/30 02:40:49;;;;;;;53.77;28.63;;;1.50;1.00;;;;;;10413766;28;20203;-82
2022/11/30 02:46:32;;;;;;;51.10;29.17;;;1.50;1.00;;;;;;10457096;28;20532;-82
2022/11/30 02:51:55;;;;;;;50.83;29.60;;;1.50;1.00;;;;;;10407731;28;20215;-82
2022/11/30 02:57:16;;;;;;;48.33;29.87;;;1.40;1.00;;;;;;10423972;28;20200;-81
2022/11/30 03:02:38;;;;;;;55.60;31.53;;;1.30;1.00;;;;;;10407078;28;20211;-83
2022/11/30 03:07:59;;;;;;;48.50;29.90;;;1.30;1.00;;;;;;10417753;28;20265;-82
2022/11/30 03:13:20;;;;;;;55.03;30.40;;;1.40;1.00;;;;;;10467313;28;20512;-82
2022/11/30 03:18:41;;;;;;;53.57;30.30;;;1.40;1.00;;;;;;10481456;28;20529;-82
2022/11/30 03:24:02;;;;;;;57.17;30.30;;;1.40;1.00;;;;;;10537604;28;20190;-81
2022/11/30 03:29:24;;;;;;;54.80;30.93;;;1.40;1.00;;;;;;10531252;28;20226;-80
2022/11/30 03:34:45;;;;;;;52.20;30.67;;;1.30;1.00;;;;;;10501037;28;20432;-81
2022/11/30 03:40:06;;;;;;;47.30;28.07;;;1.40;1.00;;;;;;10507177;28;20197;-81
2022/11/30 03:45:27;;;;;;;57.87;29.77;;;1.40;1.00;;;;;;10524041;28;20245;-82
2022/11/30 03:50:49;;;;;;;49.63;27.83;;;1.40;1.00;;;;;;10506776;28;20207;-82
2022/11/30 03:56:10;;;;;;;51.03;27.97;;;1.50;1.00;;;;;;10520701;28;20193;-83
2022/11/30 04:01:31;;;;;;;48.43;28.17;;;1.50;1.00;;;;;;10505814;28;20199;-81
2022/11/30 04:06:53;;;;;;;51.13;29.83;;;1.40;1.00;;;;;;10506082;28;20234;-82
2022/11/30 04:12:14;;;;;;;47.93;28.20;;;1.40;1.00;;;;;;10505634;28;20390;-81
2022/11/30 04:17:35;;;;;;;44.93;27.63;;;1.40;1.00;;;;;;10477165;28;20235;-81
2022/11/30 04:22:57;;;;;;;44.80;27.27;;;1.50;1.00;;;;;;10485151;28;20206;-83
2022/11/30 04:28:18;;;;;;;50.50;29.63;;;1.50;1.00;;;;;;10519473;28;20276;-82
2022/11/30 04:33:39;;;;;;;49.90;28.53;;;1.40;1.00;;;;;;10481624;28;20207;-80
2022/11/30 04:39:01;;;;;;;52.70;29.23;;;1.40;1.00;;;;;;10477287;28;20387;-81
2022/11/30 04:44:22;;;;;;;45.53;27.80;;;1.30;1.00;;;;;;10517461;28;20268;-82
2022/11/30 04:49:43;;;;;;;48.03;28.57;;;1.40;1.00;;;;;;10504833;28;20223;-80
2022/11/30 04:55:05;;;;;;;50.90;28.97;;;1.40;1.00;;;;;;10504518;28;20600;-82
2022/11/30 05:00:26;;;;;;;51.27;29.33;;;1.40;1.00;;;;;;10504474;28;20206;-81
2022/11/30 05:05:48;;;;;;;53.53;28.93;;;1.50;1.00;;;;;;10519234;28;20190;-81
2022/11/30 05:11:09;;;;;;;52.73;29.43;;;1.40;1.00;;;;;;10518907;28;20190;-82
2022/11/30 05:16:30;;;;;;;53.97;29.37;;;1.40;1.00;;;;;;10477437;28;20225;-81
2022/11/30 05:21:51;;;;;;;52.37;30.13;;;1.40;1.00;;;;;;10487114;28;20200;-82
2022/11/30 05:27:12;;;;;;;65.77;34.63;;;1.40;1.00;;;;;;10545802;28;20275;-82
2022/11/30 05:32:36;;;;;;;59.67;33.13;;;1.40;1.00;;;;;;10490607;28;20275;-83
2022/11/30 05:37:57;;;;;;;58.77;30.70;;;1.40;1.00;;;;;;10449098;28;20282;-83
2022/11/30 05:43:19;;;;;;;56.83;30.93;;;1.40;1.00;;;;;;10510658;28;20217;-82
2022/11/30 05:48:40;;;;;;;50.67;29.83;;;1.30;1.00;;;;;;10568459;28;20216;-83
2022/11/30 05:54:01;;;;;;;59.13;31.33;;;1.40;1.00;;;;;;10552943;28;20225;-82
2022/11/30 05:59:22;;;;;;;60.03;31.93;;;1.40;1.00;;;;;;10538459;28;20198;-83
2022/11/30 06:04:43;;;;;;;53.93;30.93;;;1.40;1.00;;;;;;10559746;28;20190;-82
2022/11/30 06:10:06;;;;;;;57.00;33.20;;;1.40;1.00;;;;;;10524526;28;20225;-82
2022/11/30 06:15:27;;;;;;;54.63;30.63;;;1.50;1.00;;;;;;10510420;28;20207;-81
2022/11/30 06:20:48;;;;;;;58.17;32.03;;;1.40;1.00;;;;;;10527868;28;20214;-83
2022/11/30 06:26:11;;;;;;;59.67;33.17;;;1.40;1.00;;;;;;10565896;28;20203;-83
2022/11/30 06:31:32;;;;;;;58.43;32.53;;;1.40;1.00;;;;;;10515345;28;20202;-83
2022/11/30 06:36:53;;;;;;;57.63;33.70;;;1.40;1.00;;;;;;10509439;28;20202;-81
2022/11/30 06:42:14;;;;;;;57.57;31.80;;;1.30;1.00;;;;;;10531777;28;20263;-82
2022/11/30 06:47:35;;;;;;;57.93;32.13;;;1.40;1.00;;;;;;10564898;28;20228;-82
2022/11/30 06:52:56;;;;;;;62.20;31.80;;;1.30;1.00;;;;;;10517914;28;20193;-81
2022/11/30 06:58:18;;;;;;;70.90;33.33;;;1.30;1.00;;;;;;10521729;28;20205;-83
2022/11/30 07:03:40;;;;;;;57.17;32.87;;;1.40;1.00;;;;;;10522534;28;20202;-82
2022/11/30 07:09:01;;;;;;;63.57;35.90;;;1.30;1.00;;;;;;10522022;28;20211;-83
2022/11/30 07:14:22;;;;;;;60.47;33.73;;;1.30;1.00;;;;;;10522044;28;20247;-82
2022/11/30 07:19:43;;;;;;;73.60;36.27;;;1.30;1.00;;;;;;10518433;28;20417;-84
2022/11/30 07:30:45;;;;;;;66.43;37.83;;;1.40;1.00;;;;;;10508183;28;20223;-83
2022/11/30 07:36:07;;;;;;;61.43;32.77;;;1.40;1.00;;;;;;10483168;28;20205;-83
2022/11/30 07:41:29;;;;;;;65.50;34.27;;;1.40;1.00;;;;;;10481490;28;20214;-83
2022/11/30 07:46:51;;;;;;;74.37;40.60;;;1.40;1.00;;;;;;10547990;28;20551;-81
2022/11/30 07:52:12;;;;;;;65.73;37.20;;;1.30;1.00;;;;;;10547718;28;20195;-82
2022/11/30 07:57:33;;;;;;;73.23;37.67;;;1.30;1.00;;;;;;10547916;28;20196;-81
2022/11/30 08:02:54;;;;;;;70.50;39.13;;;1.30;1.00;;;;;;10563219;28;20197;-83
2022/11/30 08:08:16;;;;;;;82.23;42.50;;;1.40;1.00;;;;;;10541537;28;20231;-80
2022/11/30 08:13:37;;;;;;;69.83;37.20;;;1.40;1.00;;;;;;10478398;28;20415;-81
2022/11/30 08:18:58;;;;;;;74.57;41.03;;;1.40;1.00;;;;;;10470357;28;20276;-84
2022/11/30 08:24:20;;;;;;;73.23;36.00;;;1.40;1.00;;;;;;10501755;28;20377;-82
2022/11/30 08:29:41;;;;;;;65.27;34.60;;;1.40;1.00;;;;;;10486494;28;20225;-80
2022/11/30 08:35:02;;;;;;;58.03;33.50;;;1.40;1.00;;;;;;10458031;28;20229;-80
2022/11/30 08:40:23;;;;;;;81.97;38.27;;;1.50;1.00;;;;;;10513058;28;20278;-81
2022/11/30 08:45:44;;;;;;;57.40;32.90;;;1.50;1.00;;;;;;10522064;28;20404;-81
2022/11/30 08:51:10;;;;;;;62.77;34.80;;;1.40;1.00;;;;;;10555053;28;20256;-81
2022/11/30 08:56:31;;;;;;;61.03;34.03;;;1.40;1.00;;;;;;10541000;28;20194;-89
2022/11/30 09:01:52;;;;;;;54.40;32.83;;;1.40;1.00;;;;;;10539965;28;20231;-83
2022/11/30 09:07:13;;;;;;;71.17;38.67;;;1.40;1.00;;;;;;10514895;28;20518;-85
2022/11/30 09:12:36;;;;;;;69.30;38.30;;;1.40;1.00;;;;;;10475113;28;20279;-81
2022/11/30 09:17:57;;;;;;;57.80;32.93;;;1.40;1.00;;;;;;10460992;28;20311;-82
2022/11/30 09:23:19;;;;;;;57.30;34.87;;;1.40;1.00;;;;;;10449097;28;20215;-83
2022/11/30 09:28:40;;;;;;;59.80;34.20;;;1.40;1.00;;;;;;10462378;28;20230;-80
2022/11/30 09:34:02;;;;;;;55.10;32.23;;;1.40;1.00;;;;;;10500330;28;20193;-78
2022/11/30 09:39:23;;;;;;;61.37;33.97;;;1.40;1.00;;;;;;10493404;28;20292;-80
2022/11/30 09:44:59;;;;;;;55.77;31.93;;;1.40;1.00;;;;;;10537340;28;20217;-83
2022/11/30 09:50:25;;;;;;;54.97;32.40;;;1.30;1.00;;;;;;10563357;28;20527;-79
2022/11/30 09:55:46;;;;;;;73.03;36.57;;;1.40;1.00;;;;;;10562632;28;20195;-80
2022/11/30 10:01:16;;;;;;;60.83;34.73;;;1.40;1.00;;;;;;10533001;28;20243;-80
2022/11/30 10:06:56;;;;;;;52.50;30.93;;;1.40;1.00;;;;;;10464674;28;20237;-80
2022/11/30 10:12:41;;;;;;;54.27;32.73;;;1.40;1.00;;;;;;10482797;28;20457;-87
2022/11/30 10:18:11;;;;;;;58.43;32.53;;;1.40;1.00;;;;;;10490572;28;20235;-81
2022/11/30 10:23:59;;;;;;;60.73;33.33;;;1.40;1.00;;;;;;10494905;28;20216;-87
2022/11/30 10:29:34;;;;;;;54.73;31.07;;;1.40;1.00;;;;;;10463919;28;20434;-83
2022/11/30 10:35:02;;;;;;;61.20;33.50;;;1.40;1.00;;;;;;10452320;28;20386;-83
2022/11/30 10:40:44;;;;;;;57.30;33.97;;;1.50;1.00;;;;;;10495559;28;20485;-83
2022/11/30 10:46:16;;;;;;;57.53;33.67;;;1.60;1.00;;;;;;10478642;28;20199;-86
2022/11/30 10:51:41;;;;;;;57.63;33.23;;;1.60;1.00;;;;;;10502415;28;20190;-80
2022/11/30 10:57:04;;;;;;;59.47;34.07;;;1.60;1.00;;;;;;10503469;28;20202;-84
2022/11/30 11:02:49;;;;;;;60.03;33.87;;;1.50;1.00;;;;;;10495711;28;20432;-90
2022/11/30 11:08:23;;;;;;;65.10;37.13;;;1.50;1.00;;;;;;10459786;28;20510;-88
2022/11/30 11:13:45;;;;;;;60.37;35.13;;;1.50;1.00;;;;;;10464800;28;20556;-87
2022/11/30 11:19:42;;;;;;;58.33;34.90;;;1.50;1.00;;;;;;10494997;28;20230;-91
2022/11/30 11:25:20;;;;;;;59.80;34.33;;;1.40;1.00;;;;;;10487801;28;20212;-86
2022/11/30 11:30:41;;;;;;;57.87;35.03;;;1.40;1.00;;;;;;10452953;28;20222;-88
2022/11/30 11:36:05;;;;;;;59.23;34.43;;;1.40;1.00;;;;;;10474560;28;20199;-93
2022/11/30 11:41:34;;;;;;;58.70;33.80;;;1.50;1.00;;;;;;10502472;28;20224;-86
2022/11/30 11:47:01;;;;;;;66.07;36.10;;;1.40;1.00;;;;;;10516628;28;20216;-86
2022/11/30 11:52:22;;;;;;;63.30;36.03;;;1.40;1.00;;;;;;10502848;28;20260;-81
2022/11/30 11:57:58;;;;;;;61.77;37.30;;;1.40;1.00;;;;;;10509187;28;20277;-88
2022/11/30 12:03:37;;;;;;;60.53;35.33;;;1.50;1.00;;;;;;10475094;28;20236;-88
2022/11/30 12:09:12;;;;;;;62.03;36.03;;;1.50;1.00;;;;;;10474149;28;20276;-81
2022/11/30 12:14:34;;;;;;;59.33;35.13;;;1.50;1.00;;;;;;10498725;28;20492;-83
2022/11/30 12:19:58;;;;;;;70.53;44.03;;;1.50;1.00;;;;;;10506068;28;20251;-80
2022/11/30 12:25:33;;;;;;;62.87;37.03;;;1.40;1.00;;;;;;10499722;28;20195;-83
2022/11/30 12:31:13;;;;;;;56.30;33.37;;;1.40;1.00;;;;;;10494587;28;20256;-80
2022/11/30 12:37:27;;;;;;;65.00;37.37;;;1.40;1.00;;;;;;10475321;28;20199;-81
2022/11/30 12:43:01;;;;;;;72.50;41.17;;;1.40;1.00;;;;;;10438634;28;20510;-85
2022/11/30 12:48:42;;;;;;;52.83;33.33;;;1.40;1.00;;;;;;10486227;28;20240;-81
2022/11/30 12:54:28;;;;;;;53.33;32.07;;;1.40;1.00;;;;;;10455450;28;20493;-86
2022/11/30 13:00:18;;;;;;;50.60;30.57;;;1.40;1.00;;;;;;10430514;28;20231;-79
2022/11/30 13:05:59;;;;;;;51.17;30.50;;;1.30;99.90;;;;;;10438629;28;20209;-80
2022/11/30 13:11:36;;;;;;;51.43;30.80;;;1.30;99.90;;;;;;10469275;28;20258;-79
2022/11/30 13:17:03;;;;;;;51.70;30.63;;;1.10;1.00;;;;;;10489995;28;20555;-83
2022/11/30 13:22:49;;;;;;;55.63;30.90;;;1.20;1.00;;;;;;10480230;28;20274;-86
2022/11/30 13:28:13;;;;;;;54.80;31.00;;;1.20;99.90;;;;;;10472879;28;20217;-87
2022/11/30 13:33:34;;;;;;;50.70;28.60;;;1.30;1.00;;;;;;10491100;28;20574;-79
2022/11/30 13:39:13;;;;;;;54.47;33.00;;;1.30;72.80;;;;;;10473674;28;20202;-79
2022/11/30 13:44:37;;;;;;;53.03;30.33;;;1.20;99.90;;;;;;10482168;28;20199;-85
2022/11/30 13:50:06;;;;;;;51.27;30.90;;;1.20;99.90;;;;;;10474196;28;20257;-78
2022/11/30 13:55:46;;;;;;;79.17;46.87;;;1.10;99.90;;;;;;10475177;28;20385;-86
2022/11/30 14:01:28;;;;;;;81.33;45.20;;;1.10;1.00;;;;;;10470275;28;20198;-83
2022/11/30 14:06:58;;;;;;;70.17;36.00;;;1.10;99.90;;;;;;10465479;28;20214;-83
2022/11/30 14:12:31;;;;;;;78.37;38.07;;;1.10;1.00;;;;;;10470169;28;20278;-77
2022/11/30 14:17:56;;;;;;;75.93;37.13;;;1.10;1.00;;;;;;10505630;28;20252;-86
2022/11/30 14:23:26;;;;;;;65.17;35.33;;;1.10;1.00;;;;;;10465527;28;20211;-79
2022/11/30 14:29:24;;;;;;;64.83;35.00;;;1.10;1.00;;;;;;10483188;28;20229;-85
2022/11/30 14:34:49;;;;;;;64.60;34.20;;;1.20;1.00;;;;;;10475266;28;20301;-78
2022/11/30 14:40:16;;;;;;;62.37;36.63;;;1.10;1.00;;;;;;10484493;28;20199;-82
2022/11/30 14:45:38;;;;;;;76.33;40.27;;;1.10;1.00;;;;;;10532139;28;20205;-77
2022/11/30 14:51:02;;;;;;;84.63;42.03;;;1.20;1.00;;;;;;10496258;28;20237;-78
2022/11/30 14:56:32;;;;;;;69.00;37.43;;;1.30;1.00;;;;;;10495870;28;20195;-79
2022/11/30 15:02:00;;;;;;;73.60;40.33;;;1.20;99.90;;;;;;10507077;28;20585;-86
2022/11/30 15:07:22;;;;;;;70.23;38.33;;;1.20;1.00;;;;;;10514218;28;20268;-82
2022/11/30 15:12:45;;;;;;;66.37;37.00;;;1.30;99.90;;;;;;10503288;28;20210;-81
2022/11/30 15:18:15;;;;;;;63.10;35.67;;;1.20;99.90;;;;;;10480693;28;20265;-80
2022/11/30 15:23:36;;;;;;;64.53;37.00;;;1.20;1.00;;;;;;10533852;28;20212;-81
2022/11/30 15:29:05;;;;;;;76.37;38.13;;;1.10;1.00;;;;;;10478715;28;20246;-82
2022/11/30 15:34:33;;;;;;;73.20;41.17;;;1.20;1.00;;;;;;10476053;28;20211;-80
2022/11/30 15:39:58;;;;;;;65.83;37.40;;;1.20;1.00;;;;;;10446642;28;20494;-88
2022/11/30 15:45:25;;;;;;;63.80;35.53;;;1.20;1.00;;;;;;10511557;28;20210;-83
2022/11/30 15:50:46;;;;;;;65.60;36.90;;;1.10;1.00;;;;;;10479256;28;20246;-81
2022/11/30 15:56:22;;;;;;;65.63;35.87;;;1.00;1.00;;;;;;10448048;28;20221;-81
2022/11/30 16:02:01;;;;;;;67.40;37.87;;;1.10;1.00;;;;;;10473253;28;20260;-80
2022/11/30 16:07:26;;;;;;;81.13;40.77;;;1.10;1.00;;;;;;10501551;28;20210;-85
2022/11/30 16:12:49;;;;;;;72.80;39.57;;;1.10;1.00;;;;;;10514148;28;20495;-84
2022/11/30 16:18:23;;;;;;;77.67;40.73;;;1.00;1.00;;;;;;10491932;28;20400;-85
2022/11/30 16:23:45;;;;;;;65.72;42.75;;;1.00;1.00;;;;;;10481710;28;20513;-85
2022/11/30 16:29:06;;;;;;;71.53;41.20;;;1.00;1.00;;;;;;10518005;28;20217;-85
2022/11/30 16:34:27;;;;;;;73.70;41.27;;;1.00;1.00;;;;;;10490205;28;20216;-85
2022/11/30 16:39:48;;;;;;;78.63;42.93;;;1.10;1.00;;;;;;10479615;28;20373;-83
2022/11/30 16:45:19;;;;;;;69.03;38.53;;;1.00;1.00;;;;;;10511038;28;20276;-85
2022/11/30 16:50:43;;;;;;;70.37;39.43;;;1.00;1.00;;;;;;10558519;28;20538;-85
2022/11/30 16:56:04;;;;;;;69.13;39.57;;;1.10;1.00;;;;;;10545053;28;20499;-86
2022/11/30 17:01:40;;;;;;;69.40;41.03;;;1.10;1.00;;;;;;10546629;28;20206;-84
2022/11/30 17:07:01;;;;;;;72.03;38.83;;;1.00;1.00;;;;;;10533565;28;20280;-85
2022/11/30 17:12:22;;;;;;;69.13;40.83;;;1.00;1.00;;;;;;10525282;28;20524;-84
2022/11/30 17:17:44;;;;;;;71.13;40.20;;;1.00;1.00;;;;;;10517816;28;20598;-84
2022/11/30 17:23:05;;;;;;;66.20;37.40;;;1.00;1.00;;;;;;10502992;28;20246;-82
2022/11/30 17:28:27;;;;;;;68.63;40.43;;;0.90;1.00;;;;;;10512226;28;20209;-86
2022/11/30 17:33:48;;;;;;;71.80;39.90;;;0.90;1.00;;;;;;10448821;28;20198;-82
2022/11/30 17:39:09;;;;;;;75.07;40.23;;;1.00;1.00;;;;;;10485165;28;20188;-82
2022/11/30 17:44:32;;;;;;;84.10;44.27;;;0.90;1.00;;;;;;10538990;28;20188;-83
2022/11/30 17:49:53;;;;;;;76.77;40.20;;;0.90;1.00;;;;;;10553425;28;20522;-82
2022/11/30 17:55:15;;;;;;;72.53;40.60;;;0.90;1.00;;;;;;10553690;28;20196;-82
2022/11/30 18:00:36;;;;;;;70.50;39.10;;;0.80;1.00;;;;;;10539346;28;20270;-83
2022/11/30 18:06:02;;;;;;;82.53;43.33;;;0.80;1.00;;;;;;10539220;28;20359;-83
2022/11/30 18:11:25;;;;;;;90.60;42.87;;;0.80;1.00;;;;;;10496016;28;20287;-83
2022/11/30 18:16:46;;;;;;;68.07;38.47;;;0.90;1.00;;;;;;10473271;28;20253;-84
2022/11/30 18:22:07;;;;;;;67.93;37.03;;;0.80;1.00;;;;;;10484747;28;20201;-85
2022/11/30 18:27:28;;;;;;;67.97;37.53;;;0.80;1.00;;;;;;10485826;28;20209;-84
2022/11/30 18:32:50;;;;;;;78.20;39.93;;;0.90;1.00;;;;;;10468573;28;20440;-82
2022/11/30 18:38:12;;;;;;;70.07;35.17;;;0.80;1.00;;;;;;10484207;28;20479;-82
2022/11/30 18:43:33;;;;;;;67.23;35.37;;;0.70;1.00;;;;;;10543360;28;20355;-82
2022/11/30 18:48:55;;;;;;;66.90;34.67;;;0.70;1.00;;;;;;10516029;28;20225;-84
2022/11/30 18:54:17;;;;;;;78.90;41.07;;;0.70;1.00;;;;;;10508591;28;20519;-85
2022/11/30 18:59:38;;;;;;;68.43;36.40;;;0.80;1.00;;;;;;10509531;28;20215;-82
2022/11/30 19:05:00;;;;;;;61.50;33.33;;;0.70;1.00;;;;;;10523189;28;20219;-85
2022/11/30 19:10:22;;;;;;;51.07;28.13;;;0.70;1.00;;;;;;10472935;28;20583;-85
2022/11/30 19:15:46;;;;;;;48.60;26.53;;;0.70;1.00;;;;;;10468134;28;20185;-84
2022/11/30 19:21:10;;;;;;;46.63;26.37;;;0.70;1.00;;;;;;10490447;28;20209;-86
2022/11/30 19:26:31;;;;;;;50.47;27.10;;;0.70;1.00;;;;;;10542195;28;20210;-83
2022/11/30 19:31:53;;;;;;;51.40;27.17;;;0.70;1.00;;;;;;10563616;28;20454;-84
2022/11/30 19:37:14;;;;;;;53.53;27.67;;;0.80;1.00;;;;;;10549603;28;20569;-84
2022/11/30 19:42:36;;;;;;;58.43;32.00;;;0.80;1.00;;;;;;10505177;28;20190;-84
2022/11/30 19:47:59;;;;;;;50.33;28.37;;;0.80;1.00;;;;;;10521175;28;20211;-84
2022/11/30 19:53:21;;;;;;;50.33;27.10;;;0.90;1.00;;;;;;10492940;28;20235;-83
2022/11/30 19:58:44;;;;;;;51.47;25.37;;;0.90;1.00;;;;;;10520588;28;20212;-83
2022/11/30 20:04:05;;;;;;;49.80;28.37;;;0.90;1.00;;;;;;10519148;28;20212;-85
2022/11/30 20:09:27;;;;;;;50.93;27.37;;;1.00;1.00;;;;;;10479787;28;20219;-84
2022/11/30 20:14:49;;;;;;;74.63;39.07;;;1.00;99.90;;;;;;10450889;28;20266;-84
2022/11/30 20:20:12;;;;;;;53.57;30.43;;;1.00;1.00;;;;;;10473385;28;20249;-84
2022/11/30 20:25:33;;;;;;;60.00;32.10;;;0.90;1.00;;;;;;10504308;28;20194;-84
2022/11/30 20:30:55;;;;;;;51.43;29.23;;;1.10;1.00;;;;;;10520202;28;20237;-85
2022/11/30 20:36:17;;;;;;;55.40;32.17;;;1.10;1.00;;;;;;10505786;28;20423;-85
2022/11/30 20:41:39;;;;;;;51.17;28.70;;;1.10;1.00;;;;;;10489750;28;20198;-84
2022/11/30 20:47:00;;;;;;;45.07;26.73;;;1.10;1.00;;;;;;10561348;28;20193;-84
2022/11/30 20:52:22;;;;;;;47.53;25.83;;;1.10;1.00;;;;;;10546821;28;20236;-84
2022/11/30 20:57:45;;;;;;;53.83;27.57;;;1.10;1.00;;;;;;10546543;28;20280;-84
2022/11/30 21:03:06;;;;;;;52.10;29.00;;;1.10;1.00;;;;;;10524654;28;20195;-86
2022/11/30 21:08:33;;;;;;;49.13;28.17;;;1.20;99.90;;;;;;10477214;28;20211;-84
2022/11/30 21:13:56;;;;;;;49.57;28.50;;;1.10;1.00;;;;;;10450236;28;20213;-83
2022/11/30 21:19:17;;;;;;;55.87;28.37;;;1.10;1.00;;;;;;10499045;28;20559;-84
2022/11/30 21:24:38;;;;;;;51.47;27.70;;;1.10;1.00;;;;;;10483789;28;20282;-84
2022/11/30 21:29:59;;;;;;;53.37;29.50;;;1.10;1.00;;;;;;10498943;28;20218;-85
2022/11/30 21:35:21;;;;;;;54.77;30.37;;;1.10;1.00;;;;;;10506663;28;20262;-85
2022/11/30 21:40:51;;;;;;;56.90;31.30;;;1.10;1.00;;;;;;10471399;28;20612;-85
2022/11/30 21:46:15;;;;;;;55.53;29.67;;;1.10;1.00;;;;;;10551730;28;20515;-85
2022/11/30 21:51:37;;;;;;;54.87;29.80;;;1.10;1.00;;;;;;10553730;28;20245;-83
2022/11/30 21:56:58;;;;;;;54.93;29.20;;;1.10;1.00;;;;;;10553503;28;20204;-82
2022/11/30 22:02:20;;;;;;;51.93;29.47;;;1.20;1.00;;;;;;10534334;28;20269;-82
2022/11/30 22:07:41;;;;;;;57.10;30.43;;;1.20;1.00;;;;;;10511130;28;20262;-83
2022/11/30 22:13:02;;;;;;;50.13;27.50;;;1.20;1.00;;;;;;10511352;28;20233;-81
2022/11/30 22:18:23;;;;;;;50.33;27.70;;;1.20;1.00;;;;;;10455946;28;20238;-84
2022/11/30 22:23:48;;;;;;;50.67;28.43;;;1.20;1.00;;;;;;10504240;28;20495;-84
2022/11/30 22:29:14;;;;;;;57.17;30.40;;;1.20;1.00;;;;;;10498496;28;20215;-83
2022/11/30 22:34:36;;;;;;;55.30;30.10;;;1.20;1.00;;;;;;10455010;28;20225;-82
2022/11/30 22:39:57;;;;;;;61.03;31.40;;;1.20;1.00;;;;;;10454653;28;20460;-82
2022/11/30 22:45:18;;;;;;;52.47;30.87;;;1.20;1.00;;;;;;10534479;28;20354;-82
2022/11/30 22:50:40;;;;;;;54.77;29.80;;;1.30;1.00;;;;;;10551196;28;20228;-83
2022/11/30 22:56:17;;;;;;;50.63;29.27;;;1.30;1.00;;;;;;10532236;28;20252;-86
2022/11/30 23:01:43;;;;;;;55.47;30.10;;;1.30;1.00;;;;;;10509269;28;20402;-82
2022/11/30 23:07:04;;;;;;;52.73;29.20;;;1.30;1.00;;;;;;10508788;28;20202;-82
2022/11/30 23:12:25;;;;;;;51.13;28.70;;;1.40;1.00;;;;;;10522611;28;20356;-82
2022/11/30 23:18:03;;;;;;;56.37;31.93;;;1.30;1.00;;;;;;10508047;28;20272;-83
2022/11/30 23:23:24;;;;;;;54.73;28.93;;;1.40;1.00;;;;;;10500235;28;20221;-83
2022/11/30 23:28:47;;;;;;;51.27;28.80;;;1.40;1.00;;;;;;10481687;28;20269;-84
2022/11/30 23:34:15;;;;;;;53.93;28.33;;;1.40;1.00;;;;;;10466974;28;20195;-82
2022/11/30 23:39:36;;;;;;;47.73;27.30;;;1.40;1.00;;;;;;10465776;28;20200;-83
2022/11/30 23:44:59;;;;;;;51.07;28.20;;;1.40;1.00;;;;;;10525884;28;20224;-82
2022/11/30 23:50:20;;;;;;;44.07;26.23;;;1.40;1.00;;;;;;10549015;28;20224;-82
2022/11/30 23:55:41;;;;;;;52.60;27.23;;;1.40;1.00;;;;;;10548062;28;20499;-83
